createdAt,value
2019-01-15T00:01:59.635Z,100860.68
2019-01-15T00:04:30.880Z,100867.93
2019-01-15T00:07:02.129Z,100855.00
2019-01-15T00:09:33.316Z,100851.08
2019-01-15T00:12:07.954Z,100858.07
2019-01-15T00:14:37.452Z,100869.25
2019-01-15T00:17:08.617Z,100877.30
2019-01-15T00:19:39.832Z,100867.97
2019-01-15T00:22:11.032Z,100862.25
2019-01-15T00:24:42.206Z,100864.48
2019-01-15T00:27:13.388Z,100866.54
2019-01-15T00:29:44.687Z,100866.54
2019-01-15T00:32:15.912Z,100857.34
2019-01-15T00:34:47.253Z,100871.98
2019-01-15T00:37:18.460Z,100858.89
2019-01-15T00:39:49.602Z,100853.72
2019-01-15T00:42:20.805Z,100852.41
2019-01-15T00:44:52.011Z,100858.39
2019-01-15T00:47:23.311Z,100857.86
2019-01-15T00:49:54.468Z,100863.05
2019-01-15T00:52:25.656Z,100855.38
2019-01-15T00:54:56.826Z,100862.41
2019-01-15T00:57:28.119Z,100851.90
2019-01-15T00:59:59.282Z,100845.91
2019-01-15T01:02:30.473Z,100859.02
2019-01-15T01:05:01.641Z,100841.27
2019-01-15T01:07:32.908Z,100862.52
2019-01-15T01:10:04.838Z,100869.02
2019-01-15T01:12:36.054Z,100863.70
2019-01-15T01:15:08.784Z,100863.70
2019-01-15T01:17:41.027Z,100858.13
2019-01-15T01:20:15.832Z,100870.57
2019-01-15T01:22:47.035Z,100861.48
2019-01-15T01:25:18.250Z,100870.31
2019-01-15T01:27:49.496Z,100871.61
2019-01-15T01:30:22.539Z,100863.06
2019-01-15T01:32:53.780Z,100870.55
2019-01-15T01:35:24.953Z,100880.67
2019-01-15T01:37:56.143Z,100871.59
2019-01-15T01:40:27.431Z,100871.71
2019-01-15T01:42:58.557Z,100867.33
2019-01-15T01:45:29.872Z,100880.53
2019-01-15T01:48:01.050Z,100879.89
2019-01-15T01:50:32.320Z,100879.89
2019-01-15T01:53:03.503Z,100882.89
2019-01-15T01:55:34.676Z,100882.89
2019-01-15T01:58:05.866Z,100886.10
2019-01-15T02:00:37.030Z,100881.30
2019-01-15T02:03:08.330Z,100888.04
2019-01-15T02:05:39.551Z,100888.04
2019-01-15T02:08:10.865Z,100888.28
2019-01-15T02:10:42.083Z,100888.28
2019-01-15T02:13:13.347Z,100891.39
2019-01-15T02:15:44.552Z,100891.39
2019-01-15T02:18:15.812Z,100881.23
2019-01-15T02:20:47.025Z,100891.64
2019-01-15T02:23:18.219Z,100891.64
2019-01-15T02:25:49.425Z,100907.45
2019-01-15T02:28:20.581Z,100907.05
2019-01-15T02:30:51.862Z,100907.05
2019-01-15T02:33:23.061Z,100901.59
2019-01-15T02:35:54.274Z,100896.63
2019-01-15T02:38:25.481Z,100896.63
2019-01-15T02:40:56.682Z,100910.42
2019-01-15T02:43:27.842Z,100904.84
2019-01-15T02:45:59.002Z,100900.95
2019-01-15T02:48:30.204Z,100910.42
2019-01-15T02:51:01.397Z,100908.33
2019-01-15T02:53:32.673Z,100901.21
2019-01-15T02:56:04.054Z,100926.24
2019-01-15T02:58:35.859Z,100899.89
2019-01-15T03:01:07.148Z,100906.38
2019-01-15T03:03:38.360Z,100915.09
2019-01-15T03:06:09.536Z,100915.09
2019-01-15T03:08:40.798Z,100902.60
2019-01-15T03:11:12.085Z,100912.73
2019-01-15T03:13:43.535Z,100908.03
2019-01-15T03:16:14.788Z,100903.38
2019-01-15T03:18:47.692Z,100905.70
2019-01-15T03:21:19.010Z,100899.48
2019-01-15T03:23:50.215Z,100898.17
2019-01-15T03:26:21.356Z,100909.07
2019-01-15T03:28:52.585Z,100907.27
2019-01-15T03:31:23.910Z,100897.38
2019-01-15T03:33:55.095Z,100913.50
2019-01-15T03:36:26.366Z,100905.70
2019-01-15T03:38:57.630Z,100889.38
2019-01-15T03:41:28.833Z,100904.67
2019-01-15T03:44:00.114Z,100914.13
2019-01-15T03:46:31.321Z,100904.53
2019-01-15T03:49:02.459Z,100914.92
2019-01-15T03:51:33.712Z,100915.18
2019-01-15T03:54:04.880Z,100915.18
2019-01-15T03:56:36.078Z,100902.19
2019-01-15T03:59:07.306Z,100904.29
2019-01-15T04:01:38.440Z,100898.94
2019-01-15T04:04:09.661Z,100899.98
2019-01-15T04:06:40.829Z,100890.38
2019-01-15T04:09:12.041Z,100897.64
2019-01-15T04:11:43.186Z,100904.14
2019-01-15T04:14:14.377Z,100894.81
2019-01-15T04:16:45.582Z,100907.94
2019-01-15T04:19:16.748Z,100907.94
2019-01-15T04:21:47.967Z,100904.96
2019-01-15T04:24:19.136Z,100892.62
2019-01-15T04:26:50.418Z,100887.81
2019-01-15T04:29:21.632Z,100895.60
2019-01-15T04:31:52.800Z,100894.30
2019-01-15T04:34:24.069Z,100896.52
2019-01-15T04:36:55.284Z,100897.44
2019-01-15T04:39:26.553Z,100893.53
2019-01-15T04:41:57.718Z,100901.33
2019-01-15T04:44:28.928Z,100898.61
2019-01-15T04:47:00.155Z,100910.83
2019-01-15T04:49:31.320Z,100919.13
2019-01-15T04:52:02.511Z,100914.98
2019-01-15T04:54:33.773Z,100923.14
2019-01-15T04:57:05.319Z,100918.98
2019-01-15T04:59:37.102Z,100913.66
2019-01-15T05:02:08.300Z,100914.97
2019-01-15T05:04:39.496Z,100908.84
2019-01-15T05:07:10.698Z,100904.69
2019-01-15T05:09:41.889Z,100908.06
2019-01-15T05:12:13.079Z,100908.06
2019-01-15T05:14:44.317Z,100898.73
2019-01-15T05:17:15.695Z,100897.67
2019-01-15T05:19:46.962Z,100897.41
2019-01-15T05:22:18.121Z,100899.74
2019-01-15T05:24:49.325Z,100884.42
2019-01-15T05:27:20.794Z,100890.11
2019-01-15T05:29:52.075Z,100889.61
2019-01-15T05:32:23.305Z,100891.30
2019-01-15T05:34:54.532Z,100883.27
2019-01-15T05:37:25.796Z,100883.27
2019-01-15T05:39:56.936Z,100874.44
2019-01-15T05:42:28.171Z,100859.14
2019-01-15T05:45:00.052Z,100859.14
2019-01-15T05:47:31.723Z,100872.62
2019-01-15T05:50:02.968Z,100878.51
2019-01-15T05:52:34.170Z,100869.17
2019-01-15T05:55:05.923Z,100874.10
2019-01-15T05:57:37.118Z,100867.64
2019-01-15T06:00:09.061Z,100874.10
2019-01-15T06:02:40.186Z,100875.92
2019-01-15T06:05:11.654Z,100868.69
2019-01-15T06:07:43.172Z,100868.69
2019-01-15T06:10:14.391Z,100873.61
2019-01-15T06:12:45.583Z,100880.37
2019-01-15T06:15:16.946Z,100884.52
2019-01-15T06:17:48.142Z,100879.89
2019-01-15T06:20:19.515Z,100881.95
2019-01-15T06:22:50.659Z,100885.98
2019-01-15T06:25:22.010Z,100893.39
2019-01-15T06:27:53.176Z,100893.39
2019-01-15T06:30:24.480Z,100888.34
2019-01-15T06:32:55.624Z,100888.34
2019-01-15T06:35:26.831Z,100885.20
2019-01-15T06:37:59.079Z,100885.20
2019-01-15T06:40:30.238Z,100874.45
2019-01-15T06:43:01.509Z,100885.72
2019-01-15T06:45:32.843Z,100875.24
2019-01-15T06:48:04.206Z,100875.24
2019-01-15T06:50:35.349Z,100893.53
2019-01-15T06:53:06.587Z,100893.53
2019-01-15T06:55:37.672Z,100891.85
2019-01-15T06:58:08.949Z,100875.24
2019-01-15T07:00:40.103Z,100886.42
2019-01-15T07:03:11.281Z,100886.67
2019-01-15T07:05:42.601Z,100891.87
2019-01-15T07:08:13.761Z,100901.20
2019-01-15T07:10:44.938Z,100873.94
2019-01-15T07:13:16.190Z,100873.94
2019-01-15T07:15:47.589Z,100861.38
2019-01-15T07:18:18.786Z,100862.28
2019-01-15T07:20:50.046Z,100854.08
2019-01-15T07:23:21.338Z,100854.08
2019-01-15T07:25:53.682Z,100855.14
2019-01-15T07:28:24.866Z,100836.08
2019-01-15T07:30:58.668Z,100836.08
2019-01-15T07:33:31.221Z,100857.35
2019-01-15T07:36:02.407Z,100848.27
2019-01-15T07:38:33.570Z,100866.17
2019-01-15T07:41:04.724Z,100866.17
2019-01-15T07:43:35.901Z,100870.95
2019-01-15T07:46:07.110Z,100869.55
2019-01-15T07:48:38.315Z,100875.34
2019-01-15T07:51:09.482Z,100875.34
2019-01-15T07:53:40.700Z,100860.05
2019-01-15T07:56:11.991Z,100851.84
2019-01-15T07:58:43.142Z,100865.09
2019-01-15T08:01:15.590Z,100838.46
2019-01-15T08:03:46.823Z,100850.13
2019-01-15T08:06:17.996Z,100850.13
2019-01-15T08:08:49.153Z,100869.08
2019-01-15T08:11:20.402Z,100862.41
2019-01-15T08:13:51.549Z,100857.20
2019-01-15T08:16:22.716Z,100857.20
2019-01-15T08:18:54.223Z,100854.61
2019-01-15T08:21:25.402Z,100855.08
2019-01-15T08:23:56.615Z,100855.08
2019-01-15T08:26:27.767Z,100892.48
2019-01-15T08:28:59.059Z,100851.68
2019-01-15T08:31:30.390Z,100852.72
2019-01-15T08:34:01.557Z,100848.14
2019-01-15T08:36:32.774Z,100867.50
2019-01-15T08:39:05.592Z,100893.75
2019-01-15T08:41:37.091Z,100893.75
2019-01-15T08:44:08.289Z,100871.93
2019-01-15T08:46:39.455Z,100858.20
2019-01-15T08:49:10.618Z,100858.85
2019-01-15T08:51:43.280Z,100853.57
2019-01-15T08:54:15.144Z,100853.57
2019-01-15T08:56:46.331Z,100862.92
2019-01-15T08:59:17.498Z,100855.89
2019-01-15T09:01:48.691Z,100846.30
2019-01-15T09:04:19.863Z,100842.67
2019-01-15T09:06:51.043Z,100842.44
2019-01-15T09:09:22.254Z,100832.05
2019-01-15T09:11:53.397Z,100835.00
2019-01-15T09:14:26.960Z,100822.96
2019-01-15T09:16:58.659Z,100829.93
2019-01-15T09:19:29.816Z,100822.64
2019-01-15T09:22:01.040Z,100836.66
2019-01-15T09:24:32.356Z,100824.70
2019-01-15T09:27:04.125Z,100821.84
2019-01-15T09:29:35.324Z,100803.36
2019-01-15T09:32:06.506Z,100820.86
2019-01-15T09:34:37.710Z,100802.25
2019-01-15T09:37:10.514Z,100798.58
2019-01-15T09:39:41.876Z,100803.23
2019-01-15T09:42:13.196Z,100806.59
2019-01-15T09:44:44.678Z,100797.95
2019-01-15T09:47:17.124Z,100808.34
2019-01-15T09:49:48.384Z,100795.58
2019-01-15T09:52:20.601Z,100805.92
2019-01-15T09:54:52.061Z,100805.77
2019-01-15T09:57:23.288Z,100794.02
2019-01-15T09:59:54.460Z,100784.27
2019-01-15T10:02:25.673Z,100792.82
2019-01-15T10:04:56.906Z,100790.45
2019-01-15T10:07:28.087Z,100792.77
2019-01-15T10:09:59.234Z,100777.39
2019-01-15T10:12:30.361Z,100780.75
2019-01-15T10:15:01.552Z,100788.44
2019-01-15T10:17:32.671Z,100784.91
2019-01-15T10:20:04.606Z,100777.21
2019-01-15T10:22:35.768Z,100784.31
2019-01-15T10:25:08.667Z,100772.59
2019-01-15T10:27:41.253Z,100766.53
2019-01-15T10:30:18.204Z,100775.89
2019-01-15T10:33:20.803Z,100779.63
2019-01-15T10:35:54.237Z,100765.70
2019-01-15T10:38:26.787Z,100760.00
2019-01-15T10:40:58.674Z,100767.39
2019-01-15T10:43:31.489Z,100775.89
2019-01-15T10:46:03.808Z,100767.44
2019-01-15T10:48:35.080Z,100785.55
2019-01-15T10:51:06.327Z,100766.31
2019-01-15T10:53:37.477Z,100778.40
2019-01-15T10:56:08.691Z,100778.34
2019-01-15T10:58:39.931Z,100757.00
2019-01-15T11:01:11.101Z,100760.41
2019-01-15T11:03:42.363Z,100774.08
2019-01-15T11:06:13.643Z,100753.97
2019-01-15T11:08:44.813Z,100759.45
2019-01-15T11:11:17.072Z,100754.41
2019-01-15T11:13:48.184Z,100746.88
2019-01-15T11:16:20.136Z,100746.88
2019-01-15T11:18:51.331Z,100736.20
2019-01-15T11:21:22.532Z,100737.50
2019-01-15T11:23:53.679Z,100737.34
2019-01-15T11:26:24.866Z,100713.12
2019-01-15T11:28:56.009Z,100720.70
2019-01-15T11:31:27.161Z,100726.49
2019-01-15T11:33:58.399Z,100714.73
2019-01-15T11:36:29.563Z,100722.89
2019-01-15T11:39:00.797Z,100716.71
2019-01-15T11:41:32.782Z,100707.82
2019-01-15T11:44:03.961Z,100703.78
2019-01-15T11:46:36.066Z,100726.23
2019-01-15T11:49:07.330Z,100682.62
2019-01-15T11:51:38.480Z,100696.77
2019-01-15T11:54:09.676Z,100702.39
2019-01-15T11:56:41.058Z,100691.42
2019-01-15T11:59:12.571Z,100676.05
2019-01-15T12:02:03.855Z,100681.58
2019-01-15T12:05:12.699Z,100667.47
2019-01-15T12:08:06.031Z,100668.73
2019-01-15T12:11:11.647Z,100676.47
2019-01-15T12:14:00.480Z,100686.03
2019-01-15T12:16:50.704Z,100669.31
2019-01-15T12:19:33.897Z,100655.09
2019-01-15T12:22:23.365Z,100710.30
2019-01-15T12:25:14.289Z,100646.71
2019-01-15T12:27:53.685Z,100653.42
2019-01-15T12:30:51.188Z,100657.15
2019-01-15T12:33:47.312Z,100661.30
2019-01-15T12:36:27.404Z,100653.30
2019-01-15T12:39:33.165Z,100656.11
2019-01-15T12:42:26.612Z,100649.41
2019-01-15T12:45:18.418Z,100659.64
2019-01-15T12:48:06.877Z,100650.24
2019-01-15T12:50:55.780Z,100661.39
2019-01-15T12:53:44.716Z,100653.78
2019-01-15T12:56:37.781Z,100639.06
2019-01-15T12:59:27.276Z,100641.19
2019-01-15T13:02:20.336Z,100640.80
2019-01-15T13:05:10.121Z,100643.99
2019-01-15T13:07:58.877Z,100641.63
2019-01-15T13:10:49.018Z,100642.11
2019-01-15T13:13:38.080Z,100628.44
2019-01-15T13:16:37.144Z,100616.13
2019-01-15T13:19:30.151Z,100613.20
2019-01-15T13:22:19.244Z,100619.42
2019-01-15T13:25:12.527Z,100610.82
2019-01-15T13:28:01.484Z,100613.14
2019-01-15T13:30:50.557Z,100610.92
2019-01-15T13:33:56.062Z,100602.41
2019-01-15T13:36:40.557Z,100600.30
2019-01-15T13:39:29.373Z,100603.30
2019-01-15T13:42:26.357Z,100583.64
2019-01-15T13:45:19.340Z,100589.77
2019-01-15T13:48:00.204Z,100578.44
2019-01-15T13:50:54.377Z,100563.80
2019-01-15T13:53:45.176Z,100568.23
2019-01-15T13:56:30.748Z,100575.34
2019-01-15T13:59:36.284Z,100569.83
2019-01-15T14:02:27.580Z,100555.87
2019-01-15T14:05:23.806Z,100552.06
2019-01-15T14:08:23.076Z,100559.30
2019-01-15T14:11:06.210Z,100559.63
2019-01-15T14:13:54.904Z,100553.82
2019-01-15T14:16:44.245Z,100544.49
2019-01-15T14:19:32.048Z,100556.03
2019-01-15T14:22:21.423Z,100552.30
2019-01-15T14:25:12.736Z,100556.02
2019-01-15T14:28:12.322Z,100545.48
2019-01-15T14:31:06.527Z,100549.19
2019-01-15T14:34:02.721Z,100557.33
2019-01-15T14:36:52.946Z,100561.95
2019-01-15T14:39:41.533Z,100552.62
2019-01-15T14:42:40.966Z,100551.41
2019-01-15T14:45:30.439Z,100555.50
2019-01-15T14:48:21.621Z,100560.03
2019-01-15T14:51:09.132Z,100554.12
2019-01-15T14:53:56.206Z,100555.61
2019-01-15T14:56:45.168Z,100554.02
2019-01-15T14:59:34.066Z,100562.45
2019-01-15T15:02:23.239Z,100561.63
2019-01-15T15:05:01.053Z,100559.73
2019-01-15T15:07:52.278Z,100564.34
2019-01-15T15:10:52.255Z,100557.00
2019-01-15T15:13:37.041Z,100563.23
2019-01-15T15:16:27.196Z,100548.56
2019-01-15T15:19:09.618Z,100541.52
2019-01-15T15:21:58.563Z,100556.58
2019-01-15T15:25:08.252Z,100546.66
2019-01-15T15:27:59.459Z,100544.05
2019-01-15T15:30:56.632Z,100547.62
2019-01-15T15:33:46.859Z,100557.77
2019-01-15T15:36:40.136Z,100539.63
2019-01-15T15:39:23.982Z,100530.88
2019-01-15T15:42:20.082Z,100528.75
2019-01-15T15:45:07.084Z,100540.11
2019-01-15T15:47:58.972Z,100537.49
2019-01-15T15:50:59.087Z,100540.20
2019-01-15T15:53:48.184Z,100537.19
2019-01-15T15:56:37.389Z,100540.72
2019-01-15T15:59:26.266Z,100538.98
2019-01-15T16:02:24.087Z,100540.41
2019-01-15T16:05:18.497Z,100542.20
2019-01-15T16:08:11.722Z,100537.07
2019-01-15T16:11:12.597Z,100550.52
2019-01-15T16:13:58.274Z,100530.94
2019-01-15T16:16:47.997Z,100530.55
2019-01-15T16:19:35.928Z,100537.46
2019-01-15T16:22:24.846Z,100540.20
2019-01-15T16:25:27.364Z,100528.54
2019-01-15T16:28:17.552Z,100541.08
2019-01-15T16:31:10.937Z,100532.37
2019-01-15T16:33:57.395Z,100526.72
2019-01-15T16:36:46.245Z,100540.20
2019-01-15T16:39:36.383Z,100531.45
2019-01-15T16:42:35.282Z,100533.77
2019-01-15T16:45:26.037Z,100534.06
2019-01-15T16:48:05.898Z,100543.51
2019-01-15T16:50:45.550Z,100516.30
2019-01-15T16:53:42.013Z,100532.36
2019-01-15T16:56:44.394Z,100531.06
2019-01-15T16:59:46.886Z,100535.70
2019-01-15T17:02:36.004Z,100554.48
2019-01-15T17:05:29.116Z,100529.48
2019-01-15T17:08:12.906Z,100515.12
2019-01-15T17:11:00.681Z,100506.72
2019-01-15T17:14:03.078Z,100533.99
2019-01-15T17:16:51.760Z,100506.02
2019-01-15T17:19:39.584Z,100510.02
2019-01-15T17:22:37.701Z,100511.32
2019-01-15T17:25:26.872Z,100508.41
2019-01-15T17:28:08.888Z,100508.59
2019-01-15T17:30:58.122Z,100502.67
2019-01-15T17:33:47.295Z,100522.25
2019-01-15T17:36:49.617Z,100512.39
2019-01-15T17:39:42.822Z,100523.05
2019-01-15T17:42:51.399Z,100507.95
2019-01-15T17:45:40.589Z,100522.53
2019-01-15T17:48:32.093Z,100530.55
2019-01-15T17:51:37.450Z,100521.09
2019-01-15T17:54:27.748Z,100515.48
2019-01-15T17:57:31.225Z,100491.16
2019-01-15T18:00:40.015Z,100502.13
2019-01-15T18:03:30.354Z,100502.61
2019-01-15T18:06:23.404Z,100513.57
2019-01-15T18:09:13.679Z,100504.09
2019-01-15T18:12:02.834Z,100518.58
2019-01-15T18:14:59.382Z,100536.34
2019-01-15T18:17:55.407Z,100546.78
2019-01-15T18:20:38.718Z,100516.36
2019-01-15T18:23:25.183Z,100523.20
2019-01-15T18:26:21.754Z,100512.84
2019-01-15T18:29:11.004Z,100512.05
2019-01-15T18:32:00.184Z,100535.13
2019-01-15T18:34:59.267Z,100520.88
2019-01-15T18:38:00.747Z,100541.44
2019-01-15T18:41:09.224Z,100523.16
2019-01-15T18:44:08.800Z,100536.55
2019-01-15T18:46:57.620Z,100535.42
2019-01-15T18:49:47.763Z,100554.53
2019-01-15T18:52:56.420Z,100545.60
2019-01-15T18:55:40.373Z,100527.32
2019-01-15T18:58:29.412Z,100536.38
2019-01-15T19:01:37.879Z,100547.61
2019-01-15T19:04:30.734Z,100528.84
2019-01-15T19:07:23.720Z,100533.67
2019-01-15T19:10:20.007Z,100541.08
2019-01-15T19:13:16.206Z,100539.69
2019-01-15T19:16:05.548Z,100534.45
2019-01-15T19:18:54.893Z,100532.67
2019-01-15T19:22:03.209Z,100518.70
2019-01-15T19:25:11.662Z,100525.23
2019-01-15T19:28:01.477Z,100530.45
2019-01-15T19:30:52.846Z,100535.77
2019-01-15T19:33:42.040Z,100532.77
2019-01-15T19:36:32.243Z,100529.45
2019-01-15T19:39:24.337Z,100531.64
2019-01-15T19:42:32.978Z,100545.52
2019-01-15T19:45:32.878Z,100548.61
2019-01-15T19:48:23.269Z,100530.76
2019-01-15T19:51:07.061Z,100541.59
2019-01-15T19:54:00.218Z,100525.53
2019-01-15T19:56:52.454Z,100539.16
2019-01-15T19:59:59.626Z,100548.30
2019-01-15T20:03:03.693Z,100530.42
2019-01-15T20:06:00.089Z,100530.94
2019-01-15T20:08:49.519Z,100528.81
2019-01-15T20:11:47.511Z,100531.42
2019-01-15T20:14:50.559Z,100535.86
2019-01-15T20:17:57.275Z,100527.59
2019-01-15T20:20:52.015Z,100542.56
2019-01-15T20:23:34.833Z,100545.27
2019-01-15T20:26:43.429Z,100531.52
2019-01-15T20:29:42.641Z,100555.50
2019-01-15T20:32:35.897Z,100545.66
2019-01-15T20:35:45.136Z,100559.72
2019-01-15T20:38:35.272Z,100545.84
2019-01-15T20:41:34.771Z,100615.58
2019-01-15T20:44:15.242Z,100556.80
2019-01-15T20:47:04.211Z,100565.13
2019-01-15T20:49:53.302Z,100559.11
2019-01-15T20:52:42.150Z,100577.88
2019-01-15T20:55:24.252Z,100561.81
2019-01-15T20:58:13.835Z,100579.37
2019-01-15T21:01:09.253Z,100578.19
2019-01-15T21:04:15.017Z,100567.30
2019-01-15T21:06:59.848Z,100559.69
2019-01-15T21:09:56.385Z,100558.29
2019-01-15T21:12:49.480Z,100563.91
2019-01-15T21:15:37.192Z,100570.92
2019-01-15T21:18:26.340Z,100561.47
2019-01-15T21:21:28.947Z,100556.25
2019-01-15T21:24:34.262Z,100568.91
2019-01-15T21:27:14.681Z,100558.86
2019-01-15T21:29:54.211Z,100559.69
2019-01-15T21:32:44.452Z,100547.92
2019-01-15T21:35:38.007Z,100555.45
2019-01-15T21:38:28.186Z,100561.98
2019-01-15T21:41:15.303Z,100545.01
2019-01-15T21:44:23.589Z,100569.40
2019-01-15T21:47:10.341Z,100558.38
2019-01-15T21:49:59.365Z,100552.63
2019-01-15T21:52:47.627Z,100555.33
2019-01-15T21:55:39.942Z,100563.17
2019-01-15T21:58:36.331Z,100578.06
2019-01-15T22:01:32.867Z,100571.44
2019-01-15T22:04:31.898Z,100557.55
2019-01-15T22:07:20.635Z,100556.55
2019-01-15T22:10:20.288Z,100557.38
2019-01-15T22:13:06.916Z,100547.31
2019-01-15T22:16:02.739Z,100558.59
2019-01-15T22:19:14.512Z,100558.08
2019-01-15T22:22:46.531Z,100555.86
2019-01-15T22:26:10.646Z,100555.37
2019-01-15T22:29:10.268Z,100567.43
2019-01-15T22:32:22.150Z,100559.72
2019-01-15T22:35:20.962Z,100566.73
2019-01-15T22:38:55.245Z,100552.28
2019-01-15T22:42:20.576Z,100558.33
2019-01-15T22:45:30.717Z,100576.18
2019-01-15T22:48:27.752Z,100565.07
2019-01-15T22:54:52.789Z,100553.02
2019-01-15T22:57:53.766Z,100557.62
2019-01-15T23:00:58.521Z,100567.67
2019-01-15T23:03:56.898Z,100572.42
2019-01-15T23:06:48.611Z,100550.61
2019-01-15T23:09:46.260Z,100548.30
2019-01-15T23:12:42.660Z,100572.20
2019-01-15T23:15:36.687Z,100552.62
2019-01-15T23:18:37.640Z,100545.69
2019-01-15T23:22:04.751Z,100538.77
2019-01-15T23:25:02.852Z,100550.31
2019-01-15T23:28:19.687Z,100537.73
2019-01-15T23:31:22.889Z,100553.19
2019-01-15T23:34:30.965Z,100542.56
2019-01-15T23:37:25.465Z,100535.39
2019-01-15T23:40:43.158Z,100545.63
2019-01-15T23:43:38.671Z,100532.26
2019-01-15T23:46:38.042Z,100525.11
2019-01-15T23:49:40.397Z,100534.12
2019-01-15T23:52:45.230Z,100519.88
2019-01-15T23:55:46.907Z,100535.42
2019-01-15T23:58:48.206Z,100536.42
